createdAt,value
2019-02-25T10:36:31.097Z,39.67
2019-02-25T10:41:34.947Z,39.37
2019-02-25T10:46:39.015Z,37.34
2019-02-25T10:51:43.982Z,35.12
2019-02-25T10:56:54.110Z,35.65
2019-02-25T11:01:56.699Z,34.24
2019-02-25T11:07:00.811Z,32.47
2019-02-25T11:12:03.793Z,34.15
2019-02-25T11:17:06.387Z,34.49
2019-02-25T11:22:10.507Z,35.21
2019-02-25T11:27:13.514Z,34.31
2019-02-25T11:32:17.334Z,33.78
2019-02-25T11:37:22.545Z,33.49
2019-02-25T11:42:25.114Z,32.42
2019-02-25T11:47:30.501Z,29.80
2019-02-25T11:52:33.212Z,29.85
2019-02-25T11:57:35.639Z,30.84
2019-02-25T12:02:38.030Z,31.39
2019-02-25T12:07:40.562Z,33.12
2019-02-25T12:12:43.190Z,32.31
2019-02-25T12:17:45.701Z,32.39
2019-02-25T12:22:48.117Z,32.32
2019-02-25T12:27:50.634Z,32.26
2019-02-25T12:32:53.139Z,32.41
2019-02-25T12:37:55.579Z,32.59
2019-02-25T12:42:58.218Z,31.70
2019-02-25T12:48:00.669Z,32.31
2019-02-25T12:53:03.031Z,33.43
2019-02-25T12:58:05.336Z,33.43
2019-02-25T13:03:07.719Z,33.43
2019-02-25T13:08:10.425Z,33.43
2019-02-25T13:13:12.931Z,32.45
2019-02-25T13:18:15.315Z,34.61
2019-02-25T13:23:17.680Z,34.40
2019-02-25T13:28:21.369Z,32.99
2019-02-25T13:33:24.031Z,32.99
2019-02-25T13:38:26.374Z,32.26
2019-02-25T13:43:28.631Z,31.96
2019-02-25T13:48:30.967Z,31.96
2019-02-25T13:53:33.630Z,31.75
2019-02-25T13:58:37.171Z,32.93
2019-02-25T14:03:39.867Z,32.97
2019-02-25T14:08:42.334Z,32.77
2019-02-25T14:13:45.169Z,30.91
2019-02-25T14:18:47.500Z,30.84
2019-02-25T14:23:49.860Z,31.93
2019-02-25T14:28:52.428Z,30.73
2019-02-25T14:33:54.897Z,30.38
2019-02-25T14:38:59.455Z,30.82
2019-02-25T14:44:01.152Z,29.92
2019-02-25T14:49:03.469Z,28.78
2019-02-25T14:54:05.744Z,29.45
2019-02-25T14:59:12.574Z,29.81
2019-02-25T15:04:14.027Z,17.59
2019-02-25T15:09:16.468Z,16.40
2019-02-25T15:14:19.284Z,22.82
2019-02-25T15:19:21.573Z,28.82
2019-02-25T15:24:24.169Z,29.37
2019-02-25T15:29:26.345Z,30.94
2019-02-25T15:34:28.563Z,31.60
2019-02-25T15:39:31.249Z,32.63
2019-02-25T15:44:33.483Z,32.66
2019-02-25T15:49:35.842Z,32.57
2019-02-25T15:54:39.344Z,32.53
2019-02-25T15:59:42.322Z,33.53
2019-02-25T16:04:44.426Z,33.81
2019-02-25T16:09:46.530Z,33.07
2019-02-25T16:14:49.294Z,34.55
2019-02-25T16:34:49.289Z,34.13
2019-02-25T16:39:51.407Z,35.46
2019-02-25T16:44:57.158Z,37.45
2019-02-25T16:49:58.598Z,37.98
2019-02-25T16:55:02.165Z,37.29
2019-02-25T17:00:09.629Z,37.29
2019-02-25T17:05:11.620Z,38.10
2019-02-25T17:10:15.391Z,38.22
2019-02-25T17:15:18.040Z,38.18
2019-02-25T17:20:20.534Z,39.45
2019-02-25T17:25:26.824Z,40.07
2019-02-25T17:30:27.251Z,41.39
2019-02-25T17:35:30.728Z,41.29
2019-02-25T17:40:35.214Z,40.56
2019-02-25T17:45:41.116Z,40.59
2019-02-25T17:50:43.455Z,40.44
2019-02-25T17:55:45.539Z,41.10
2019-02-25T18:00:47.916Z,40.21
2019-02-25T18:05:50.020Z,41.52
2019-02-25T18:10:52.812Z,41.52
2019-02-25T18:15:56.277Z,42.65
2019-02-25T18:20:58.863Z,42.38
2019-02-25T18:26:01.255Z,43.24
2019-02-25T18:31:04.403Z,42.53
2019-02-25T18:36:08.882Z,43.20
2019-02-25T18:41:11.232Z,42.91
2019-02-25T18:46:13.593Z,43.66
2019-02-25T18:51:16.205Z,43.80
2019-02-25T18:56:20.462Z,45.12
2019-02-25T19:01:23.529Z,43.77
2019-02-25T19:06:26.274Z,44.32
2019-02-25T19:11:28.808Z,43.64
2019-02-25T19:16:31.196Z,44.91
2019-02-25T19:21:34.151Z,45.22
2019-02-25T19:26:38.080Z,44.70
2019-02-25T19:31:42.523Z,45.89
2019-02-25T19:36:44.995Z,46.05
2019-02-25T19:41:49.159Z,46.44
2019-02-25T19:46:53.831Z,46.54
2019-02-25T19:51:56.127Z,46.58
2019-02-25T19:56:58.251Z,45.66
2019-02-25T20:02:00.594Z,45.42
2019-02-25T20:07:02.974Z,46.20
2019-02-25T20:12:05.201Z,47.13
2019-02-25T20:17:07.780Z,46.98
2019-02-25T20:22:11.936Z,46.71
2019-02-25T20:27:14.407Z,46.87
2019-02-25T20:32:18.515Z,47.58
2019-02-25T20:37:22.905Z,47.57
2019-02-25T20:42:28.673Z,47.61
2019-02-25T20:52:52.755Z,48.68
2019-02-25T20:57:55.031Z,48.82
2019-02-25T21:03:01.183Z,49.04
2019-02-25T21:08:04.063Z,49.56
2019-02-25T21:13:06.766Z,49.61
2019-02-25T21:18:08.950Z,49.76
2019-02-25T21:23:12.542Z,49.85
2019-02-25T21:28:15.147Z,50.29
2019-02-25T21:33:19.722Z,50.25
2019-02-25T21:38:23.788Z,50.62
2019-02-25T21:43:28.841Z,51.73
2019-02-25T21:48:53.166Z,52.10
2019-02-25T21:53:55.926Z,52.45
2019-02-25T21:58:57.732Z,53.18
2019-02-25T22:04:00.409Z,54.67
2019-02-25T22:09:05.099Z,53.73
2019-02-25T22:14:07.881Z,53.32
2019-02-25T22:19:12.007Z,53.34
2019-02-25T22:24:14.553Z,53.38
2019-02-25T22:29:17.173Z,53.74
2019-02-25T22:34:20.631Z,54.04
2019-02-25T22:39:25.220Z,53.76
2019-02-25T22:44:29.595Z,53.67
2019-02-25T22:49:32.677Z,54.15
2019-02-25T22:54:37.118Z,54.62
2019-02-25T22:59:38.964Z,54.83
2019-02-25T23:04:44.937Z,55.10
2019-02-25T23:09:48.109Z,56.49
2019-02-25T23:14:50.470Z,56.21
2019-02-25T23:19:54.612Z,57.29
2019-02-25T23:24:57.662Z,57.61
2019-02-25T23:30:00.696Z,57.98
2019-02-25T23:35:09.269Z,58.38
2019-02-25T23:40:12.017Z,58.13
2019-02-25T23:45:19.918Z,58.56
2019-02-25T23:50:27.370Z,58.91
2019-02-25T23:55:32.142Z,59.17
